Time;durP1;ratioP1;P1;durP2;ratioP2;P2;SDS_P1;SDS_P2;PMS_P1;PMS_P2;Temp;Humidity;BMP_temperature;BMP_pressure;BME280_temperature;BME280_humidity;BME280_pressure;Samples;Min_cycle;Max_cycle;Signal;HPM_P1;HPM_P2
2022/11/30 00:00:20;;;;;;;0.37;0.37;;;7.10;99.90;;;;;;4957060;28;20439;-70
2022/11/30 00:02:48;;;;;;;0.70;0.70;;;7.10;99.90;;;;;;4956994;28;20181;-70
2022/11/30 00:05:14;;;;;;;0.60;0.55;;;7.10;99.90;;;;;;4956767;28;20180;-69
2022/11/30 00:07:40;;;;;;;0.35;0.35;;;7.10;99.90;;;;;;4957004;28;20238;-70
2022/11/30 00:10:06;;;;;;;0.97;0.50;;;7.20;99.90;;;;;;4956667;28;20634;-70
2022/11/30 00:12:32;;;;;;;0.40;0.40;;;7.20;99.90;;;;;;4956757;28;20307;-70
2022/11/30 00:14:58;;;;;;;0.40;0.40;;;7.10;99.90;;;;;;4956864;28;20650;-70
2022/11/30 00:17:24;;;;;;;0.57;0.57;;;7.20;99.90;;;;;;4956483;28;20227;-70
2022/11/30 00:19:49;;;;;;;0.60;0.60;;;7.20;99.90;;;;;;4956556;28;20526;-70
2022/11/30 00:22:15;;;;;;;0.40;0.40;;;7.20;99.90;;;;;;4956602;28;20548;-70
2022/11/30 00:24:40;;;;;;;0.70;0.70;;;7.20;99.90;;;;;;4956070;28;20235;-70
2022/11/30 00:27:06;;;;;;;0.57;0.57;;;7.20;99.90;;;;;;4956366;28;20216;-70
2022/11/30 00:29:32;;;;;;;0.60;0.60;;;7.20;99.90;;;;;;4956537;28;20182;-70
2022/11/30 00:31:57;;;;;;;0.30;0.30;;;7.10;99.90;;;;;;4956531;28;20175;-70
2022/11/30 00:34:23;;;;;;;0.40;0.40;;;7.00;99.90;;;;;;4956502;28;20183;-70
2022/11/30 00:36:48;;;;;;;1.37;1.37;;;7.00;99.90;;;;;;4956396;28;20199;-70
2022/11/30 00:39:14;;;;;;;1.70;0.80;;;7.00;99.90;;;;;;4956104;28;20230;-70
2022/11/30 00:41:40;;;;;;;0.60;0.60;;;6.90;99.90;;;;;;4956307;28;20593;-70
2022/11/30 00:44:05;;;;;;;1.93;0.77;;;7.00;99.90;;;;;;4956330;28;20176;-69
2022/11/30 00:46:31;;;;;;;0.30;0.30;;;6.90;99.90;;;;;;4956186;28;20217;-70
2022/11/30 00:48:56;;;;;;;0.40;0.40;;;6.90;99.90;;;;;;4956212;28;20178;-70
2022/11/30 00:51:22;;;;;;;1.60;1.13;;;6.90;99.90;;;;;;4956071;28;20211;-69
2022/11/30 00:53:48;;;;;;;0.37;0.37;;;7.00;99.90;;;;;;4956192;28;20184;-70
2022/11/30 00:56:13;;;;;;;0.50;0.50;;;6.90;99.90;;;;;;4956015;28;20187;-70
2022/11/30 00:58:39;;;;;;;1.00;0.50;;;6.90;99.90;;;;;;4955942;28;20179;-69
2022/11/30 01:01:06;;;;;;;0.40;0.40;;;6.80;99.90;;;;;;4956082;28;20267;-70
2022/11/30 01:03:32;;;;;;;0.60;0.60;;;6.70;99.90;;;;;;4954556;29;20220;-70
2022/11/30 01:06:03;;;;;;;1.20;1.20;;;6.80;99.90;;;;;;4955965;28;20204;-71
2022/11/30 01:08:28;;;;;;;0.40;0.40;;;6.90;99.90;;;;;;4956060;28;20180;-71
2022/11/30 01:10:56;;;;;;;1.80;1.80;;;6.80;99.90;;;;;;4955668;28;20166;-71
2022/11/30 01:13:22;;;;;;;0.40;0.40;;;6.80;99.90;;;;;;4955903;28;20234;-71
2022/11/30 01:15:48;;;;;;;1.30;0.93;;;6.80;99.90;;;;;;4955484;28;20673;-70
2022/11/30 01:18:14;;;;;;;0.53;0.53;;;6.80;99.90;;;;;;4955036;28;20218;-71
2022/11/30 01:20:41;;;;;;;0.65;0.65;;;6.90;99.90;;;;;;4954956;28;20411;-71
2022/11/30 01:23:07;;;;;;;0.30;0.30;;;6.90;99.90;;;;;;4955544;28;20238;-71
2022/11/30 01:25:33;;;;;;;0.40;0.40;;;6.90;99.90;;;;;;4955487;28;20705;-71
2022/11/30 01:27:58;;;;;;;0.40;0.40;;;6.90;99.90;;;;;;4955472;28;20286;-71
2022/11/30 01:30:24;;;;;;;1.27;1.27;;;6.80;99.90;;;;;;4955300;28;20198;-71
2022/11/30 01:32:50;;;;;;;0.40;0.40;;;6.80;99.90;;;;;;4955457;28;20505;-71
2022/11/30 01:35:16;;;;;;;0.83;0.83;;;6.90;99.90;;;;;;4955484;28;20179;-71
2022/11/30 01:37:41;;;;;;;0.30;0.30;;;6.90;99.90;;;;;;4955380;28;20506;-70
2022/11/30 01:40:09;;;;;;;0.70;0.70;;;6.90;99.90;;;;;;4955565;28;20177;-71
2022/11/30 01:42:36;;;;;;;0.40;0.40;;;7.00;99.90;;;;;;4955489;28;20592;-71
2022/11/30 01:45:04;;;;;;;0.60;0.50;;;6.90;99.90;;;;;;4955541;28;20602;-71
2022/11/30 01:47:36;;;;;;;0.40;0.40;;;7.00;99.90;;;;;;4955263;28;20206;-71
2022/11/30 01:50:17;;;;;;;0.40;0.40;;;6.90;99.90;;;;;;4955619;28;20178;-71
2022/11/30 01:52:48;;;;;;;1.02;0.95;;;6.90;99.90;;;;;;4955501;28;20195;-71
2022/11/30 01:55:24;;;;;;;0.38;0.38;;;6.90;99.90;;;;;;4955432;28;20180;-70
2022/11/30 01:58:08;;;;;;;0.60;0.60;;;6.90;99.90;;;;;;4955280;28;20281;-71
2022/11/30 02:00:34;;;;;;;0.40;0.40;;;6.90;99.90;;;;;;4955207;28;20172;-70
2022/11/30 02:03:06;;;;;;;0.40;0.40;;;6.90;99.90;;;;;;4955276;28;20176;-70
2022/11/30 02:05:34;;;;;;;0.40;0.40;;;6.80;99.90;;;;;;4955313;28;20542;-70
2022/11/30 02:08:00;;;;;;;0.70;0.70;;;6.80;99.90;;;;;;4955029;28;20188;-70
2022/11/30 02:10:29;;;;;;;0.40;0.40;;;6.90;99.90;;;;;;4955065;28;20646;-71
2022/11/30 02:13:03;;;;;;;0.40;0.40;;;6.90;99.90;;;;;;4955054;28;20276;-71
2022/11/30 02:15:39;;;;;;;1.50;0.98;;;6.90;99.90;;;;;;4953803;29;20178;-71
2022/11/30 02:18:13;;;;;;;0.60;0.60;;;6.80;99.90;;;;;;4955089;28;20194;-71
2022/11/30 02:20:42;;;;;;;0.70;0.63;;;6.80;99.90;;;;;;4954925;28;20278;-71
2022/11/30 02:23:33;;;;;;;1.05;0.95;;;6.70;99.90;;;;;;4954972;28;20230;-71
2022/11/30 02:26:31;;;;;;;0.90;0.90;;;6.70;99.90;;;;;;4955071;28;20208;-70
2022/11/30 02:29:06;;;;;;;0.60;0.57;;;6.70;99.90;;;;;;4924906;28;20517;-71
2022/11/30 02:32:05;;;;;;;0.95;0.95;;;6.70;99.90;;;;;;4955231;28;20182;-71
2022/11/30 02:34:34;;;;;;;0.40;0.40;;;6.60;99.90;;;;;;4955079;28;20238;-71
2022/11/30 02:37:02;;;;;;;0.38;0.38;;;6.50;99.90;;;;;;4953647;28;20208;-71
2022/11/30 02:39:27;;;;;;;0.40;0.40;;;6.40;99.90;;;;;;4954977;28;20235;-70
2022/11/30 02:41:53;;;;;;;1.40;1.30;;;6.40;99.90;;;;;;4954988;28;20174;-70
2022/11/30 02:44:20;;;;;;;0.40;0.40;;;6.30;99.90;;;;;;4953549;29;20187;-70
2022/11/30 02:46:53;;;;;;;0.80;0.60;;;6.30;99.90;;;;;;4954779;28;20683;-70
2022/11/30 02:49:28;;;;;;;0.65;0.50;;;6.20;99.90;;;;;;4957005;28;20158;-70
2022/11/30 02:51:55;;;;;;;0.60;0.60;;;6.10;99.90;;;;;;4957216;29;20185;-70
2022/11/30 02:54:21;;;;;;;2.35;1.33;;;6.10;99.90;;;;;;4958381;28;20182;-70
2022/11/30 02:56:46;;;;;;;0.80;0.80;;;6.10;99.90;;;;;;4958060;28;20203;-70
2022/11/30 02:59:12;;;;;;;0.40;0.40;;;6.10;99.90;;;;;;4956687;29;20423;-71
2022/11/30 03:01:38;;;;;;;0.50;0.50;;;6.10;99.90;;;;;;4958184;28;20185;-70
2022/11/30 03:04:04;;;;;;;0.30;0.30;;;6.10;99.90;;;;;;4957956;28;20176;-70
2022/11/30 03:06:30;;;;;;;0.50;0.50;;;6.10;99.90;;;;;;4957822;28;20207;-70
2022/11/30 03:08:55;;;;;;;0.40;0.40;;;6.10;99.90;;;;;;4957694;28;20230;-71
2022/11/30 03:11:21;;;;;;;0.40;0.40;;;6.10;99.90;;;;;;4958272;28;20199;-71
2022/11/30 03:13:47;;;;;;;2.67;0.83;;;6.10;99.90;;;;;;4956718;29;20179;-71
2022/11/30 03:16:13;;;;;;;0.40;0.40;;;6.10;99.90;;;;;;4956503;28;20812;-70
2022/11/30 03:18:39;;;;;;;0.50;0.50;;;6.10;99.90;;;;;;4957568;28;20174;-70
2022/11/30 03:21:09;;;;;;;0.40;0.40;;;6.10;99.90;;;;;;4957649;28;20429;-70
2022/11/30 03:23:36;;;;;;;0.40;0.40;;;6.00;99.90;;;;;;4957603;28;20656;-70
2022/11/30 03:26:02;;;;;;;0.40;0.40;;;6.00;99.90;;;;;;4957690;28;20566;-70
2022/11/30 03:28:28;;;;;;;1.48;1.48;;;5.80;99.90;;;;;;4957598;28;20177;-70
2022/11/30 03:30:54;;;;;;;0.37;0.37;;;5.70;99.90;;;;;;4957588;28;20165;-70
2022/11/30 03:33:20;;;;;;;0.80;0.80;;;5.80;99.90;;;;;;4957463;28;20779;-70
2022/11/30 03:35:46;;;;;;;0.40;0.40;;;5.90;99.90;;;;;;4957454;28;20968;-71
2022/11/30 03:38:12;;;;;;;0.40;0.40;;;5.90;99.90;;;;;;4957489;28;20201;-70
2022/11/30 03:40:37;;;;;;;0.30;0.30;;;5.80;99.90;;;;;;4957323;28;20185;-71
2022/11/30 03:43:03;;;;;;;0.40;0.40;;;5.90;99.90;;;;;;4957439;28;20544;-71
2022/11/30 03:45:29;;;;;;;0.70;0.70;;;5.90;99.90;;;;;;4957322;28;20197;-70
2022/11/30 03:47:55;;;;;;;0.40;0.40;;;5.90;99.90;;;;;;4957346;28;20217;-71
2022/11/30 03:50:21;;;;;;;1.73;0.77;;;5.90;99.90;;;;;;4957075;28;20408;-70
2022/11/30 03:52:47;;;;;;;0.50;0.50;;;5.80;99.90;;;;;;4957085;28;20403;-71
2022/11/30 03:55:13;;;;;;;0.53;0.53;;;5.80;99.90;;;;;;4957181;28;20183;-70
2022/11/30 03:57:38;;;;;;;0.63;0.63;;;5.90;99.90;;;;;;4957045;28;20818;-70
2022/11/30 04:00:05;;;;;;;0.50;0.50;;;5.90;99.90;;;;;;4956833;28;20259;-70
2022/11/30 04:02:31;;;;;;;0.40;0.40;;;5.90;99.90;;;;;;4957106;28;20170;-71
2022/11/30 04:04:57;;;;;;;0.77;0.77;;;6.00;99.90;;;;;;4957132;28;20581;-70
2022/11/30 04:07:23;;;;;;;0.30;0.30;;;5.90;99.90;;;;;;4957276;28;20233;-71
2022/11/30 04:09:48;;;;;;;0.47;0.47;;;5.90;99.90;;;;;;4955530;29;20204;-70
2022/11/30 04:12:14;;;;;;;0.30;0.30;;;5.90;99.90;;;;;;4956912;28;20406;-70
2022/11/30 04:14:40;;;;;;;0.73;0.73;;;5.90;99.90;;;;;;4956940;28;20166;-71
2022/11/30 04:17:05;;;;;;;0.30;0.30;;;5.80;99.90;;;;;;4956540;28;20256;-70
2022/11/30 04:19:31;;;;;;;0.40;0.40;;;5.80;99.90;;;;;;4956512;28;20180;-70
2022/11/30 04:21:57;;;;;;;0.73;0.70;;;5.80;99.90;;;;;;4956633;28;20540;-71
2022/11/30 04:24:22;;;;;;;0.30;0.30;;;5.70;99.90;;;;;;4956611;28;20178;-71
2022/11/30 04:26:48;;;;;;;0.60;0.60;;;5.80;99.90;;;;;;4956513;28;20463;-70
2022/11/30 04:29:14;;;;;;;3.13;2.93;;;5.80;99.90;;;;;;4956316;28;20171;-71
2022/11/30 04:31:39;;;;;;;0.87;0.70;;;5.80;99.90;;;;;;4956572;28;20524;-70
2022/11/30 04:34:05;;;;;;;0.40;0.40;;;5.80;99.90;;;;;;4956571;28;20178;-70
2022/11/30 04:36:30;;;;;;;0.43;0.40;;;5.80;99.90;;;;;;4956291;28;20268;-70
2022/11/30 04:38:56;;;;;;;0.40;0.40;;;5.90;99.90;;;;;;4956265;28;20646;-70
2022/11/30 04:41:22;;;;;;;0.40;0.40;;;6.00;99.90;;;;;;4956377;28;20200;-70
2022/11/30 04:43:47;;;;;;;0.80;0.80;;;6.00;99.90;;;;;;4956661;28;20249;-70
2022/11/30 04:46:13;;;;;;;1.40;1.30;;;6.00;99.90;;;;;;4956183;28;20197;-70
2022/11/30 04:48:39;;;;;;;0.30;0.30;;;5.90;99.90;;;;;;4955933;28;20170;-70
2022/11/30 04:51:07;;;;;;;0.40;0.40;;;5.90;99.90;;;;;;4956091;28;20170;-70
2022/11/30 04:53:34;;;;;;;0.50;0.50;;;5.80;99.90;;;;;;4956252;28;20165;-70
2022/11/30 04:56:05;;;;;;;0.40;0.40;;;5.80;99.90;;;;;;4956113;28;20201;-70
2022/11/30 04:58:31;;;;;;;0.77;0.77;;;5.80;99.90;;;;;;4955909;28;20164;-70
2022/11/30 05:00:57;;;;;;;0.70;0.70;;;5.90;99.90;;;;;;4956304;28;20268;-70
2022/11/30 05:03:22;;;;;;;0.97;0.97;;;5.80;99.90;;;;;;4954659;29;20174;-70
2022/11/30 05:05:48;;;;;;;1.70;1.60;;;5.80;99.90;;;;;;4955807;28;20197;-70
2022/11/30 05:08:13;;;;;;;2.30;1.37;;;5.90;99.90;;;;;;4955760;28;20678;-71
2022/11/30 05:10:39;;;;;;;0.37;0.37;;;5.90;99.90;;;;;;4955355;28;20233;-70
2022/11/30 05:13:05;;;;;;;0.50;0.50;;;5.80;99.90;;;;;;4955885;28;20181;-70
2022/11/30 05:15:31;;;;;;;0.30;0.30;;;5.90;99.90;;;;;;4955454;28;20308;-70
2022/11/30 05:18:00;;;;;;;0.52;0.52;;;5.90;99.90;;;;;;4955827;28;20560;-70
2022/11/30 05:20:27;;;;;;;0.75;0.73;;;6.00;99.90;;;;;;4955441;28;20235;-71
2022/11/30 05:22:53;;;;;;;1.00;0.95;;;6.10;99.90;;;;;;4955819;28;20177;-70
2022/11/30 05:25:18;;;;;;;1.33;1.20;;;6.10;99.90;;;;;;4955604;28;20256;-71
2022/11/30 05:27:44;;;;;;;0.40;0.40;;;6.20;99.90;;;;;;4955665;28;20190;-70
2022/11/30 05:30:11;;;;;;;3.90;3.50;;;6.20;99.90;;;;;;4955345;28;20170;-71
2022/11/30 05:32:36;;;;;;;0.43;0.43;;;6.30;99.90;;;;;;4955453;28;20631;-70
2022/11/30 05:35:02;;;;;;;2.47;2.33;;;6.30;99.90;;;;;;4955675;28;20178;-70
2022/11/30 05:37:28;;;;;;;0.40;0.40;;;6.30;99.90;;;;;;4954110;28;20208;-71
2022/11/30 05:39:54;;;;;;;2.60;1.30;;;6.40;99.90;;;;;;4953995;29;20280;-70
2022/11/30 05:42:20;;;;;;;0.50;0.50;;;6.30;99.90;;;;;;4955621;28;20555;-70
2022/11/30 05:44:46;;;;;;;0.45;0.45;;;6.30;99.90;;;;;;4955758;28;20183;-71
2022/11/30 05:47:12;;;;;;;0.40;0.40;;;6.30;99.90;;;;;;4955210;28;20205;-71
2022/11/30 05:49:37;;;;;;;0.40;0.40;;;6.30;99.90;;;;;;4954063;29;20703;-70
2022/11/30 05:52:03;;;;;;;0.43;0.43;;;6.30;99.90;;;;;;4955404;28;20219;-70
2022/11/30 05:54:29;;;;;;;1.30;0.60;;;6.30;99.90;;;;;;4954215;29;20245;-70
2022/11/30 05:56:54;;;;;;;0.50;0.50;;;6.30;99.90;;;;;;4955157;28;20737;-71
2022/11/30 05:59:20;;;;;;;0.30;0.30;;;6.30;99.90;;;;;;4955292;28;20640;-71
2022/11/30 06:01:46;;;;;;;2.00;0.80;;;6.40;99.90;;;;;;4955236;28;20282;-70
2022/11/30 06:04:11;;;;;;;0.40;0.40;;;6.30;99.90;;;;;;4955265;28;20205;-70
2022/11/30 06:06:38;;;;;;;0.47;0.47;;;6.30;99.90;;;;;;4955329;28;20288;-71
2022/11/30 06:09:03;;;;;;;0.50;0.50;;;6.30;99.90;;;;;;4955193;28;20649;-70
2022/11/30 06:11:29;;;;;;;0.47;0.47;;;6.30;99.90;;;;;;4953979;29;20209;-70
2022/11/30 06:13:55;;;;;;;0.30;0.30;;;6.30;99.90;;;;;;4955346;28;20775;-71
2022/11/30 06:16:20;;;;;;;0.60;0.60;;;6.30;99.90;;;;;;4954915;28;20189;-71
2022/11/30 06:18:46;;;;;;;0.40;0.40;;;6.20;99.90;;;;;;4955087;28;20183;-71
2022/11/30 06:21:11;;;;;;;0.77;0.77;;;6.20;99.90;;;;;;4953919;29;20230;-71
2022/11/30 06:23:37;;;;;;;2.50;1.10;;;6.20;99.90;;;;;;4956560;28;20569;-70
2022/11/30 06:26:09;;;;;;;1.77;1.67;;;6.30;99.90;;;;;;4958741;28;20201;-70
2022/11/30 06:28:36;;;;;;;0.70;0.70;;;6.20;99.90;;;;;;4958756;28;20413;-71
2022/11/30 06:31:03;;;;;;;2.55;1.15;;;6.20;99.90;;;;;;4958659;28;20261;-70
2022/11/30 06:33:29;;;;;;;0.60;0.60;;;6.30;99.90;;;;;;4958805;28;20578;-70
2022/11/30 06:35:55;;;;;;;0.30;0.30;;;6.20;99.90;;;;;;4958688;28;20237;-70
2022/11/30 06:38:21;;;;;;;0.80;0.80;;;6.20;99.90;;;;;;4958420;28;20203;-70
2022/11/30 06:40:47;;;;;;;1.70;0.85;;;6.20;99.90;;;;;;4958494;28;20254;-70
2022/11/30 06:43:12;;;;;;;0.50;0.50;;;6.20;99.90;;;;;;4958435;28;20706;-70
2022/11/30 06:45:38;;;;;;;0.40;0.40;;;6.20;99.90;;;;;;4957097;29;20346;-71
2022/11/30 06:48:04;;;;;;;1.43;0.93;;;6.30;99.90;;;;;;4958258;28;20190;-71
2022/11/30 06:50:30;;;;;;;6.93;1.50;;;6.30;99.90;;;;;;4958249;28;20413;-71
2022/11/30 06:52:56;;;;;;;1.73;0.93;;;6.30;99.90;;;;;;4957116;29;20266;-70
2022/11/30 06:55:22;;;;;;;0.50;0.50;;;6.30;99.90;;;;;;4958185;28;20563;-70
2022/11/30 06:57:49;;;;;;;0.45;0.45;;;6.30;99.90;;;;;;4958180;28;20426;-71
2022/11/30 07:00:15;;;;;;;1.02;1.02;;;6.30;99.90;;;;;;4957995;28;20240;-71
2022/11/30 07:02:41;;;;;;;0.40;0.40;;;6.40;99.90;;;;;;4957997;28;20176;-70
2022/11/30 07:05:07;;;;;;;1.27;1.13;;;6.40;99.90;;;;;;4958123;28;20201;-70
2022/11/30 07:07:32;;;;;;;0.50;0.50;;;6.40;99.90;;;;;;4958034;28;20238;-70
2022/11/30 07:09:58;;;;;;;2.73;2.10;;;6.50;99.90;;;;;;4957693;28;20410;-70
2022/11/30 07:12:24;;;;;;;0.70;0.70;;;6.50;99.90;;;;;;4957905;28;20175;-70
2022/11/30 07:14:56;;;;;;;1.00;1.00;;;6.60;99.90;;;;;;4958219;28;20535;-70
2022/11/30 07:17:22;;;;;;;4.68;2.25;;;6.60;99.90;;;;;;4957792;28;20616;-70
2022/11/30 07:19:47;;;;;;;0.83;0.83;;;6.60;99.90;;;;;;4956376;29;20269;-71
2022/11/30 07:22:13;;;;;;;0.60;0.60;;;6.60;99.90;;;;;;4957897;28;20178;-70
2022/11/30 07:27:23;;;;;;;0.52;0.52;;;6.70;99.90;;;;;;4957522;28;20219;-71
2022/11/30 07:29:51;;;;;;;2.77;1.37;;;6.70;99.90;;;;;;4957359;28;20179;-70
2022/11/30 07:32:17;;;;;;;1.20;1.20;;;6.80;99.90;;;;;;4957758;28;20307;-71
2022/11/30 07:34:42;;;;;;;0.40;0.40;;;6.80;99.90;;;;;;4957266;28;20186;-70
2022/11/30 07:37:08;;;;;;;1.17;1.17;;;6.90;99.90;;;;;;4957560;28;20196;-70
2022/11/30 07:39:34;;;;;;;0.93;0.93;;;6.90;99.90;;;;;;4957256;28;20179;-70
2022/11/30 07:41:59;;;;;;;0.30;0.30;;;7.00;99.90;;;;;;4957581;28;20171;-70
2022/11/30 07:44:25;;;;;;;0.40;0.40;;;7.10;99.90;;;;;;4957545;28;20278;-70
2022/11/30 07:46:51;;;;;;;2.10;2.00;;;7.10;99.90;;;;;;4957047;28;20206;-70
2022/11/30 07:49:16;;;;;;;2.70;2.50;;;7.10;99.90;;;;;;4955823;29;20258;-70
2022/11/30 07:51:42;;;;;;;1.60;1.50;;;7.20;99.90;;;;;;4957367;28;20195;-71
2022/11/30 07:54:08;;;;;;;1.23;1.13;;;7.20;99.90;;;;;;4957173;28;20227;-71
2022/11/30 07:56:34;;;;;;;1.23;1.03;;;7.20;99.90;;;;;;4957069;28;20197;-71
2022/11/30 07:59:00;;;;;;;1.57;1.47;;;7.30;99.90;;;;;;4956899;28;20263;-71
2022/11/30 08:01:31;;;;;;;2.58;2.33;;;7.30;99.90;;;;;;4957027;29;20188;-71
2022/11/30 08:03:57;;;;;;;1.52;1.40;;;7.40;99.90;;;;;;4957062;28;20270;-70
2022/11/30 08:06:26;;;;;;;0.70;0.70;;;7.50;99.90;;;;;;4956941;28;20204;-71
2022/11/30 08:08:53;;;;;;;7.85;2.17;;;7.40;99.90;;;;;;4956716;28;20401;-71
2022/11/30 08:11:22;;;;;;;2.45;1.85;;;7.40;99.90;;;;;;4957212;28;20219;-70
2022/11/30 08:13:48;;;;;;;0.40;0.40;;;7.40;99.90;;;;;;4957014;28;20216;-71
2022/11/30 08:16:19;;;;;;;3.17;0.63;;;7.40;99.90;;;;;;4955456;28;20238;-66
2022/11/30 08:18:46;;;;;;;1.30;1.30;;;7.50;99.90;;;;;;4956550;28;20396;-66
2022/11/30 08:21:13;;;;;;;0.50;0.50;;;8.10;99.90;;;;;;4955536;28;20651;-66
2022/11/30 08:23:44;;;;;;;0.60;0.60;;;8.80;99.90;;;;;;4956584;28;20178;-71
2022/11/30 08:26:14;;;;;;;0.60;0.60;;;9.50;99.90;;;;;;4956435;28;20248;-72
2022/11/30 08:28:41;;;;;;;1.63;1.52;;;9.60;97.70;;;;;;4955687;29;20643;-71
2022/11/30 08:31:09;;;;;;;2.58;1.30;;;9.30;97.50;;;;;;4957110;28;20531;-72
2022/11/30 08:33:36;;;;;;;1.35;0.85;;;8.90;97.30;;;;;;4956363;28;20261;-72
2022/11/30 08:36:10;;;;;;;0.52;0.52;;;8.40;97.90;;;;;;4956528;28;20531;-72
2022/11/30 08:38:36;;;;;;;1.50;1.40;;;8.20;98.60;;;;;;4956438;28;20177;-69
2022/11/30 08:41:04;;;;;;;0.40;0.40;;;8.20;98.70;;;;;;4956777;28;20632;-71
2022/11/30 08:43:30;;;;;;;0.35;0.35;;;8.10;98.50;;;;;;4956873;28;20200;-70
2022/11/30 08:45:56;;;;;;;0.40;0.40;;;7.90;99.10;;;;;;4955800;28;20208;-70
2022/11/30 08:48:22;;;;;;;0.40;0.40;;;7.80;99.10;;;;;;4956316;28;20554;-69
2022/11/30 08:50:47;;;;;;;0.50;0.50;;;7.60;97.50;;;;;;4954707;29;20415;-69
2022/11/30 08:53:13;;;;;;;0.30;0.30;;;7.50;97.80;;;;;;4956482;28;20405;-70
2022/11/30 08:55:39;;;;;;;0.30;0.30;;;7.60;98.60;;;;;;4955325;29;20189;-69
2022/11/30 08:58:05;;;;;;;0.30;0.30;;;7.50;99.50;;;;;;4956386;28;20199;-70
2022/11/30 09:00:31;;;;;;;0.40;0.40;;;7.50;99.90;;;;;;4955902;28;20409;-69
2022/11/30 09:02:56;;;;;;;0.30;0.30;;;7.50;99.90;;;;;;4956070;28;20169;-69
2022/11/30 09:05:22;;;;;;;0.30;0.30;;;7.60;99.90;;;;;;4956156;28;20171;-69
2022/11/30 09:07:47;;;;;;;0.50;0.50;;;7.70;99.90;;;;;;4955730;28;20212;-68
2022/11/30 09:10:13;;;;;;;0.63;0.63;;;7.70;99.90;;;;;;4955825;28;20177;-69
2022/11/30 09:12:39;;;;;;;0.40;0.40;;;7.60;97.70;;;;;;4956431;28;20519;-69
2022/11/30 09:15:07;;;;;;;0.50;0.50;;;7.60;97.40;;;;;;4955967;28;20208;-68
2022/11/30 09:17:33;;;;;;;0.93;0.85;;;7.70;97.60;;;;;;4955785;28;20214;-71
2022/11/30 09:19:59;;;;;;;1.33;0.70;;;7.70;97.50;;;;;;4955743;28;20512;-69
2022/11/30 09:22:26;;;;;;;0.40;0.40;;;7.50;97.50;;;;;;4955581;28;20451;-69
2022/11/30 09:24:52;;;;;;;0.47;0.47;;;7.40;97.90;;;;;;4956097;28;20238;-69
2022/11/30 09:27:18;;;;;;;0.50;0.40;;;7.40;98.40;;;;;;4953758;28;20215;-71
2022/11/30 09:29:44;;;;;;;0.83;0.83;;;7.50;98.10;;;;;;4954180;29;20266;-70
2022/11/30 09:32:09;;;;;;;0.40;0.40;;;7.40;97.50;;;;;;4955882;28;20440;-70
2022/11/30 09:34:35;;;;;;;1.00;0.60;;;7.20;96.80;;;;;;4954171;28;20184;-69
2022/11/30 09:37:01;;;;;;;0.33;0.33;;;7.20;97.50;;;;;;4955698;28;20200;-72
2022/11/30 09:39:26;;;;;;;1.50;1.40;;;7.20;98.30;;;;;;4955522;28;20548;-69
2022/11/30 09:41:55;;;;;;;0.43;0.43;;;7.40;98.70;;;;;;4956021;28;20638;-74
2022/11/30 09:44:20;;;;;;;1.88;1.52;;;7.50;99.00;;;;;;4955717;28;20184;-69
2022/11/30 09:47:03;;;;;;;0.50;0.50;;;7.60;99.20;;;;;;4955243;28;20212;-70
2022/11/30 09:49:36;;;;;;;0.55;0.55;;;7.70;97.70;;;;;;4955318;28;20664;-68
2022/11/30 09:52:07;;;;;;;2.35;1.30;;;7.70;97.60;;;;;;4955555;28;20294;-70
2022/11/30 09:54:41;;;;;;;1.33;1.33;;;7.70;97.20;;;;;;4955745;28;20276;-74
2022/11/30 09:57:30;;;;;;;1.15;1.15;;;7.90;97.10;;;;;;4956380;28;20246;-71
2022/11/30 09:59:58;;;;;;;0.57;0.57;;;8.00;97.60;;;;;;4959556;28;20184;-71
2022/11/30 10:02:28;;;;;;;0.40;0.40;;;7.90;96.90;;;;;;4959629;28;20637;-69
2022/11/30 10:04:54;;;;;;;0.30;0.30;;;7.90;97.30;;;;;;4959825;28;20172;-69
2022/11/30 10:07:35;;;;;;;1.03;0.70;;;7.90;96.30;;;;;;4957671;28;20227;-69
2022/11/30 10:10:28;;;;;;;0.82;0.75;;;7.70;96.70;;;;;;4959109;29;20760;-69
2022/11/30 10:13:22;;;;;;;0.70;0.55;;;7.80;97.10;;;;;;4958308;28;20173;-69
2022/11/30 10:16:16;;;;;;;0.50;0.50;;;7.90;96.80;;;;;;4958802;28;20602;-68
2022/11/30 10:19:15;;;;;;;0.30;0.30;;;7.90;96.80;;;;;;4957158;29;20180;-69
2022/11/30 10:22:00;;;;;;;0.50;0.50;;;7.50;95.70;;;;;;4958275;28;20210;-69
2022/11/30 10:24:49;;;;;;;0.50;0.50;;;7.30;95.90;;;;;;4958770;28;20650;-68
2022/11/30 10:27:50;;;;;;;0.40;0.40;;;7.50;96.60;;;;;;4958614;28;20212;-68
2022/11/30 10:30:29;;;;;;;0.90;0.90;;;7.80;96.10;;;;;;4958552;28;20533;-69
2022/11/30 10:32:59;;;;;;;0.60;0.60;;;8.00;95.90;;;;;;4958721;28;20183;-69
2022/11/30 10:35:52;;;;;;;0.90;0.90;;;8.10;95.40;;;;;;4958841;28;20181;-69
2022/11/30 10:38:29;;;;;;;0.40;0.40;;;8.20;96.20;;;;;;4957253;28;20201;-68
2022/11/30 10:40:56;;;;;;;0.68;0.50;;;8.20;95.60;;;;;;4958608;28;20175;-68
2022/11/30 10:43:28;;;;;;;0.55;0.55;;;8.20;95.40;;;;;;4957042;28;20177;-68
2022/11/30 10:45:54;;;;;;;0.50;0.50;;;8.00;95.10;;;;;;4957186;29;20212;-69
2022/11/30 10:48:23;;;;;;;0.40;0.40;;;8.00;95.60;;;;;;4958848;28;20526;-69
2022/11/30 10:50:49;;;;;;;0.52;0.40;;;7.90;95.60;;;;;;4958084;28;20411;-71
2022/11/30 10:53:15;;;;;;;0.75;0.75;;;7.80;95.30;;;;;;4958362;28;20172;-71
2022/11/30 10:55:53;;;;;;;1.70;1.03;;;7.90;95.50;;;;;;4958788;28;20179;-72
2022/11/30 10:58:42;;;;;;;0.52;0.52;;;8.00;95.70;;;;;;4958580;28;20540;-71
2022/11/30 11:01:27;;;;;;;0.88;0.88;;;8.20;95.60;;;;;;4947235;29;20275;-70
2022/11/30 11:04:13;;;;;;;0.40;0.40;;;8.40;95.20;;;;;;4958419;28;20635;-71
2022/11/30 11:07:09;;;;;;;0.63;0.63;;;8.60;95.30;;;;;;4943261;28;20765;-70
2022/11/30 11:09:45;;;;;;;0.95;0.95;;;8.60;94.90;;;;;;4955541;28;20177;-70
2022/11/30 11:12:24;;;;;;;1.02;1.02;;;8.60;94.50;;;;;;4957965;28;20170;-70
2022/11/30 11:15:34;;;;;;;1.15;1.15;;;8.50;94.40;;;;;;4958001;28;20170;-71
2022/11/30 11:18:21;;;;;;;0.57;0.57;;;8.60;94.70;;;;;;4930289;28;20267;-71
2022/11/30 11:20:47;;;;;;;0.57;0.50;;;8.60;94.00;;;;;;4957700;28;20214;-71
2022/11/30 11:23:38;;;;;;;0.30;0.30;;;8.40;93.60;;;;;;4957691;28;20598;-71
2022/11/30 11:26:15;;;;;;;0.40;0.40;;;8.00;94.30;;;;;;4957669;28;20196;-71
2022/11/30 11:28:45;;;;;;;0.65;0.65;;;8.00;94.90;;;;;;4957708;28;20173;-71
2022/11/30 11:31:37;;;;;;;0.40;0.40;;;8.20;94.80;;;;;;4957618;28;20166;-71
2022/11/30 11:34:04;;;;;;;0.80;0.80;;;8.40;94.30;;;;;;4957562;29;20185;-70
2022/11/30 11:36:33;;;;;;;0.30;0.30;;;8.60;93.80;;;;;;4957576;28;20197;-71
2022/11/30 11:38:59;;;;;;;0.85;0.55;;;8.60;93.90;;;;;;4955890;29;20657;-71
2022/11/30 11:41:32;;;;;;;0.47;0.47;;;8.60;94.00;;;;;;4957352;28;20639;-71
2022/11/30 11:44:04;;;;;;;0.50;0.50;;;8.60;93.70;;;;;;4957588;28;20191;-71
2022/11/30 11:46:33;;;;;;;0.40;0.40;;;8.50;93.80;;;;;;4957248;28;20201;-69
2022/11/30 11:49:05;;;;;;;0.60;0.60;;;8.50;94.10;;;;;;4957103;28;20666;-69
2022/11/30 11:51:35;;;;;;;2.70;0.47;;;8.60;94.30;;;;;;4957204;28;20188;-69
2022/11/30 11:54:32;;;;;;;1.10;0.50;;;8.70;93.40;;;;;;4957438;28;20197;-69
2022/11/30 11:56:58;;;;;;;0.45;0.45;;;8.70;92.90;;;;;;4956885;28;20201;-69
2022/11/30 11:59:32;;;;;;;0.57;0.50;;;8.80;92.70;;;;;;4956889;28;20278;-69
2022/11/30 12:02:04;;;;;;;0.65;0.50;;;8.50;92.60;;;;;;4957023;28;20743;-69
2022/11/30 12:04:52;;;;;;;1.48;0.60;;;8.30;93.40;;;;;;4957163;28;20185;-69
2022/11/30 12:07:27;;;;;;;0.88;0.88;;;8.40;94.10;;;;;;4956938;28;20233;-67
2022/11/30 12:10:01;;;;;;;0.40;0.40;;;8.40;93.50;;;;;;4956787;28;20158;-68
2022/11/30 12:12:27;;;;;;;1.85;0.98;;;8.40;93.80;;;;;;4956978;28;20173;-69
2022/11/30 12:14:55;;;;;;;0.38;0.38;;;8.30;93.70;;;;;;4956879;28;20188;-69
2022/11/30 12:17:40;;;;;;;0.60;0.60;;;8.20;93.50;;;;;;4956661;28;20298;-69
2022/11/30 12:20:18;;;;;;;2.10;1.88;;;8.00;93.90;;;;;;4955098;28;20196;-68
2022/11/30 12:23:06;;;;;;;2.78;1.42;;;7.60;94.10;;;;;;4956875;28;20177;-73
2022/11/30 12:25:41;;;;;;;1.45;1.45;;;7.50;94.50;;;;;;4956622;28;20180;-72
2022/11/30 12:28:30;;;;;;;0.40;0.40;;;7.50;94.20;;;;;;4956404;28;20188;-68
2022/11/30 12:31:13;;;;;;;0.60;0.60;;;7.50;95.00;;;;;;4956614;28;20169;-73
2022/11/30 12:33:39;;;;;;;0.50;0.50;;;7.90;95.40;;;;;;4955211;29;20174;-71
2022/11/30 12:36:10;;;;;;;0.40;0.40;;;8.20;94.50;;;;;;4954895;28;20184;-69
2022/11/30 12:38:57;;;;;;;1.77;1.67;;;8.30;94.00;;;;;;4956329;28;20534;-69
2022/11/30 12:42:06;;;;;;;1.42;1.33;;;8.40;93.60;;;;;;4955916;28;20179;-69
2022/11/30 12:44:38;;;;;;;1.38;1.13;;;8.40;93.30;;;;;;4943970;28;20192;-72
2022/11/30 12:47:40;;;;;;;0.38;0.38;;;8.20;93.60;;;;;;4956168;28;20207;-70
2022/11/30 12:50:39;;;;;;;0.40;0.40;;;8.20;93.90;;;;;;4955022;29;20165;-69
2022/11/30 12:53:24;;;;;;;0.40;0.40;;;8.00;93.70;;;;;;4956482;29;20183;-72
2022/11/30 12:56:09;;;;;;;0.93;0.93;;;8.10;94.30;;;;;;4954670;28;20296;-72
2022/11/30 12:58:37;;;;;;;0.60;0.60;;;8.30;94.60;;;;;;4956242;28;20560;-69
2022/11/30 13:01:15;;;;;;;1.63;1.52;;;8.50;93.30;;;;;;4956337;28;20637;-68
2022/11/30 13:04:08;;;;;;;3.10;2.33;;;8.50;93.30;;;;;;4956533;28;20173;-73
2022/11/30 13:06:43;;;;;;;0.93;0.93;;;8.40;93.20;;;;;;4954554;28;20572;-72
2022/11/30 13:09:28;;;;;;;0.95;0.95;;;8.10;93.10;;;;;;4955250;28;20183;-68
2022/11/30 13:12:05;;;;;;;0.70;0.70;;;7.70;93.90;;;;;;4955803;28;20187;-67
2022/11/30 13:14:33;;;;;;;1.15;1.15;;;7.40;94.40;;;;;;4956251;28;20531;-68